Tangier, Morocco
Current Conditions -  °F | °C
As of 6:00 AM on Saturday 29 Nov 2014 (Local Time) from GMTT Reporting Station
Broken Clouds Broken Clouds  
Wind Chill: 57°   Ceiling: 1600
Heat Index: 57°   Visibility: 5mi
Dew Point: 48°   Wind: 7mph
Humidity: 72%   Direction: 140°SE
Pressure: 29.21"   Gusts: NA
Location:  35.79°N, 5.81°W
Report Text: GMTT 290500Z 14006KT 8000 BKN016 FEW023CB 14/09 Q0989 TEMPOSHRA
Loading
Personal Weather Stations






























Interactive Weather Map New forecast layout! Learn more

10-Day Weather Forecast

Advertisements
Track Severe Weather on mobile